sensor_id;sensor_type;location;lat;lon;timestamp;P1;durP1;ratioP1;P2;durP2;ratioP2
10191;SDS011;17580;50.850;4.504;2023-04-24T00:02:09;16.23;;;10.77;;
10191;SDS011;17580;50.850;4.504;2023-04-24T00:04:38;12.23;;;9.90;;
10191;SDS011;17580;50.850;4.504;2023-04-24T00:07:06;14.70;;;10.63;;
10191;SDS011;17580;50.850;4.504;2023-04-24T00:09:33;13.20;;;10.43;;
10191;SDS011;17580;50.850;4.504;2023-04-24T00:12:00;15.33;;;10.13;;
10191;SDS011;17580;50.850;4.504;2023-04-24T00:14:29;11.07;;;9.70;;
10191;SDS011;17580;50.850;4.504;2023-04-24T00:16:56;10.67;;;9.23;;
10191;SDS011;17580;50.850;4.504;2023-04-24T00:19:24;11.77;;;9.93;;
10191;SDS011;17580;50.850;4.504;2023-04-24T00:21:51;14.90;;;10.77;;
10191;SDS011;17580;50.850;4.504;2023-04-24T00:24:18;15.40;;;11.17;;
10191;SDS011;17580;50.850;4.504;2023-04-24T00:26:46;13.53;;;10.50;;
10191;SDS011;17580;50.850;4.504;2023-04-24T00:29:13;11.50;;;9.07;;
10191;SDS011;17580;50.850;4.504;2023-04-24T00:31:40;14.43;;;11.37;;
10191;SDS011;17580;50.850;4.504;2023-04-24T00:34:07;14.83;;;10.87;;
10191;SDS011;17580;50.850;4.504;2023-04-24T00:36:36;14.67;;;10.17;;
10191;SDS011;17580;50.850;4.504;2023-04-24T00:39:03;12.30;;;10.53;;
10191;SDS011;17580;50.850;4.504;2023-04-24T00:41:31;16.50;;;10.37;;
10191;SDS011;17580;50.850;4.504;2023-04-24T00:43:58;11.83;;;9.03;;
10191;SDS011;17580;50.850;4.504;2023-04-24T00:46:25;14.57;;;10.27;;
10191;SDS011;17580;50.850;4.504;2023-04-24T00:48:52;12.97;;;10.13;;
10191;SDS011;17580;50.850;4.504;2023-04-24T00:51:19;18.37;;;10.87;;
10191;SDS011;17580;50.850;4.504;2023-04-24T00:53:47;15.80;;;10.23;;
10191;SDS011;17580;50.850;4.504;2023-04-24T00:56:14;14.20;;;10.87;;
10191;SDS011;17580;50.850;4.504;2023-04-24T00:58:41;15.53;;;11.13;;
10191;SDS011;17580;50.850;4.504;2023-04-24T01:01:08;18.03;;;9.97;;
10191;SDS011;17580;50.850;4.504;2023-04-24T01:03:37;17.27;;;10.93;;
10191;SDS011;17580;50.850;4.504;2023-04-24T01:06:04;15.03;;;10.37;;
10191;SDS011;17580;50.850;4.504;2023-04-24T01:08:31;13.80;;;9.77;;
10191;SDS011;17580;50.850;4.504;2023-04-24T01:11:02;13.73;;;10.37;;
10191;SDS011;17580;50.850;4.504;2023-04-24T01:13:30;13.77;;;9.60;;
10191;SDS011;17580;50.850;4.504;2023-04-24T01:15:58;15.77;;;10.83;;
10191;SDS011;17580;50.850;4.504;2023-04-24T01:18:25;13.83;;;10.07;;
10191;SDS011;17580;50.850;4.504;2023-04-24T01:20:53;12.03;;;9.03;;
10191;SDS011;17580;50.850;4.504;2023-04-24T01:23:24;15.43;;;10.37;;
10191;SDS011;17580;50.850;4.504;2023-04-24T01:25:51;14.90;;;9.13;;
10191;SDS011;17580;50.850;4.504;2023-04-24T01:28:18;12.73;;;9.97;;
10191;SDS011;17580;50.850;4.504;2023-04-24T01:30:46;13.10;;;8.47;;
10191;SDS011;17580;50.850;4.504;2023-04-24T01:33:13;12.60;;;9.30;;
10191;SDS011;17580;50.850;4.504;2023-04-24T01:35:40;15.50;;;10.90;;
10191;SDS011;17580;50.850;4.504;2023-04-24T01:38:07;12.37;;;8.67;;
10191;SDS011;17580;50.850;4.504;2023-04-24T01:40:35;10.03;;;8.50;;
10191;SDS011;17580;50.850;4.504;2023-04-24T01:43:02;10.67;;;8.50;;
10191;SDS011;17580;50.850;4.504;2023-04-24T01:45:29;11.07;;;8.50;;
10191;SDS011;17580;50.850;4.504;2023-04-24T01:47:56;12.03;;;8.80;;
10191;SDS011;17580;50.850;4.504;2023-04-24T01:50:23;10.10;;;8.97;;
10191;SDS011;17580;50.850;4.504;2023-04-24T01:52:50;11.43;;;8.93;;
10191;SDS011;17580;50.850;4.504;2023-04-24T01:55:17;9.03;;;7.97;;
10191;SDS011;17580;50.850;4.504;2023-04-24T01:57:46;9.87;;;8.67;;
10191;SDS011;17580;50.850;4.504;2023-04-24T02:00:13;9.57;;;8.57;;
10191;SDS011;17580;50.850;4.504;2023-04-24T02:02:40;8.33;;;6.53;;
10191;SDS011;17580;50.850;4.504;2023-04-24T02:05:08;10.63;;;8.67;;
10191;SDS011;17580;50.850;4.504;2023-04-24T02:07:36;13.43;;;9.93;;
10191;SDS011;17580;50.850;4.504;2023-04-24T02:10:03;11.13;;;9.40;;
10191;SDS011;17580;50.850;4.504;2023-04-24T02:12:30;13.07;;;9.00;;
10191;SDS011;17580;50.850;4.504;2023-04-24T02:14:59;13.77;;;9.70;;
10191;SDS011;17580;50.850;4.504;2023-04-24T02:17:26;13.33;;;10.47;;
10191;SDS011;17580;50.850;4.504;2023-04-24T02:19:53;12.80;;;9.10;;
10191;SDS011;17580;50.850;4.504;2023-04-24T02:22:20;9.53;;;7.80;;
10191;SDS011;17580;50.850;4.504;2023-04-24T02:24:47;13.77;;;10.00;;
10191;SDS011;17580;50.850;4.504;2023-04-24T02:27:14;11.40;;;9.27;;
10191;SDS011;17580;50.850;4.504;2023-04-24T02:29:41;12.97;;;10.60;;
10191;SDS011;17580;50.850;4.504;2023-04-24T02:32:09;12.87;;;10.97;;
10191;SDS011;17580;50.850;4.504;2023-04-24T02:34:37;14.37;;;10.20;;
10191;SDS011;17580;50.850;4.504;2023-04-24T02:37:04;13.97;;;11.17;;
10191;SDS011;17580;50.850;4.504;2023-04-24T02:39:31;13.33;;;11.03;;
10191;SDS011;17580;50.850;4.504;2023-04-24T02:41:57;11.87;;;10.57;;
10191;SDS011;17580;50.850;4.504;2023-04-24T02:44:25;13.17;;;10.30;;
10191;SDS011;17580;50.850;4.504;2023-04-24T02:46:52;13.57;;;10.97;;
10191;SDS011;17580;50.850;4.504;2023-04-24T02:49:20;10.60;;;9.50;;
10191;SDS011;17580;50.850;4.504;2023-04-24T02:51:47;16.47;;;11.60;;
10191;SDS011;17580;50.850;4.504;2023-04-24T02:54:14;16.77;;;10.77;;
10191;SDS011;17580;50.850;4.504;2023-04-24T02:56:42;12.40;;;9.63;;
10191;SDS011;17580;50.850;4.504;2023-04-24T02:59:09;11.70;;;10.47;;
10191;SDS011;17580;50.850;4.504;2023-04-24T03:01:36;10.43;;;8.57;;
10191;SDS011;17580;50.850;4.504;2023-04-24T03:04:03;11.17;;;9.73;;
10191;SDS011;17580;50.850;4.504;2023-04-24T03:06:31;10.50;;;9.27;;
10191;SDS011;17580;50.850;4.504;2023-04-24T03:09:00;10.37;;;8.70;;
10191;SDS011;17580;50.850;4.504;2023-04-24T03:11:28;13.07;;;9.07;;
10191;SDS011;17580;50.850;4.504;2023-04-24T03:13:55;10.30;;;8.23;;
10191;SDS011;17580;50.850;4.504;2023-04-24T03:16:22;8.40;;;7.60;;
10191;SDS011;17580;50.850;4.504;2023-04-24T03:18:49;7.97;;;7.13;;
10191;SDS011;17580;50.850;4.504;2023-04-24T03:21:16;9.73;;;7.00;;
10191;SDS011;17580;50.850;4.504;2023-04-24T03:23:44;7.83;;;7.13;;
10191;SDS011;17580;50.850;4.504;2023-04-24T03:26:11;8.40;;;6.93;;
10191;SDS011;17580;50.850;4.504;2023-04-24T03:28:38;7.33;;;6.47;;
10191;SDS011;17580;50.850;4.504;2023-04-24T03:31:05;7.07;;;6.43;;
10191;SDS011;17580;50.850;4.504;2023-04-24T03:33:32;8.17;;;7.00;;
10191;SDS011;17580;50.850;4.504;2023-04-24T03:35:59;7.87;;;7.03;;
10191;SDS011;17580;50.850;4.504;2023-04-24T03:38:25;8.43;;;7.40;;
10191;SDS011;17580;50.850;4.504;2023-04-24T03:40:54;7.53;;;6.83;;
10191;SDS011;17580;50.850;4.504;2023-04-24T03:43:21;5.73;;;5.17;;
10191;SDS011;17580;50.850;4.504;2023-04-24T03:45:48;5.83;;;5.33;;
10191;SDS011;17580;50.850;4.504;2023-04-24T03:48:15;8.83;;;6.50;;
10191;SDS011;17580;50.850;4.504;2023-04-24T03:50:42;9.77;;;6.97;;
10191;SDS011;17580;50.850;4.504;2023-04-24T03:53:09;8.80;;;6.37;;
10191;SDS011;17580;50.850;4.504;2023-04-24T03:55:36;7.07;;;5.43;;
10191;SDS011;17580;50.850;4.504;2023-04-24T03:58:05;5.80;;;5.20;;
10191;SDS011;17580;50.850;4.504;2023-04-24T04:00:32;4.97;;;4.47;;
10191;SDS011;17580;50.850;4.504;2023-04-24T04:02:59;6.17;;;5.37;;
10191;SDS011;17580;50.850;4.504;2023-04-24T04:05:26;7.90;;;5.77;;
10191;SDS011;17580;50.850;4.504;2023-04-24T04:07:53;6.20;;;4.47;;
10191;SDS011;17580;50.850;4.504;2023-04-24T04:10:20;5.90;;;5.17;;
10191;SDS011;17580;50.850;4.504;2023-04-24T04:12:47;5.97;;;5.47;;
10191;SDS011;17580;50.850;4.504;2023-04-24T04:15:16;6.40;;;5.40;;
10191;SDS011;17580;50.850;4.504;2023-04-24T04:17:43;10.53;;;5.73;;
10191;SDS011;17580;50.850;4.504;2023-04-24T04:20:10;5.93;;;5.40;;
10191;SDS011;17580;50.850;4.504;2023-04-24T04:22:38;4.40;;;4.10;;
10191;SDS011;17580;50.850;4.504;2023-04-24T04:25:05;5.27;;;4.80;;
10191;SDS011;17580;50.850;4.504;2023-04-24T04:27:33;4.33;;;3.93;;
10191;SDS011;17580;50.850;4.504;2023-04-24T04:30:00;4.53;;;4.13;;
10191;SDS011;17580;50.850;4.504;2023-04-24T04:32:31;4.70;;;4.33;;
10191;SDS011;17580;50.850;4.504;2023-04-24T04:34:59;4.63;;;4.17;;
10191;SDS011;17580;50.850;4.504;2023-04-24T04:37:28;5.03;;;4.37;;
10191;SDS011;17580;50.850;4.504;2023-04-24T04:39:55;4.57;;;3.53;;
10191;SDS011;17580;50.850;4.504;2023-04-24T04:42:23;4.30;;;4.00;;
10191;SDS011;17580;50.850;4.504;2023-04-24T04:44:50;5.20;;;4.33;;
10191;SDS011;17580;50.850;4.504;2023-04-24T04:47:17;5.20;;;4.50;;
10191;SDS011;17580;50.850;4.504;2023-04-24T04:49:45;4.67;;;4.37;;
10191;SDS011;17580;50.850;4.504;2023-04-24T04:52:13;4.07;;;3.87;;
10191;SDS011;17580;50.850;4.504;2023-04-24T04:54:41;4.50;;;4.10;;
10191;SDS011;17580;50.850;4.504;2023-04-24T04:57:08;5.80;;;4.90;;
10191;SDS011;17580;50.850;4.504;2023-04-24T04:59:37;5.20;;;4.57;;
10191;SDS011;17580;50.850;4.504;2023-04-24T05:02:04;5.20;;;4.80;;
10191;SDS011;17580;50.850;4.504;2023-04-24T05:04:31;6.13;;;4.90;;
10191;SDS011;17580;50.850;4.504;2023-04-24T05:06:59;5.33;;;4.90;;
10191;SDS011;17580;50.850;4.504;2023-04-24T05:09:26;6.38;;;5.45;;
10191;SDS011;17580;50.850;4.504;2023-04-24T05:11:54;7.83;;;5.50;;
10191;SDS011;17580;50.850;4.504;2023-04-24T05:14:21;7.67;;;5.30;;
10191;SDS011;17580;50.850;4.504;2023-04-24T05:16:48;7.97;;;7.17;;
10191;SDS011;17580;50.850;4.504;2023-04-24T05:19:16;9.07;;;6.97;;
10191;SDS011;17580;50.850;4.504;2023-04-24T05:21:43;7.23;;;6.50;;
10191;SDS011;17580;50.850;4.504;2023-04-24T05:24:11;8.03;;;7.23;;
10191;SDS011;17580;50.850;4.504;2023-04-24T05:26:38;10.07;;;7.80;;
10191;SDS011;17580;50.850;4.504;2023-04-24T05:29:05;8.60;;;7.70;;
10191;SDS011;17580;50.850;4.504;2023-04-24T05:31:32;8.43;;;7.40;;
10191;SDS011;17580;50.850;4.504;2023-04-24T05:33:59;8.30;;;7.13;;
10191;SDS011;17580;50.850;4.504;2023-04-24T05:36:26;11.00;;;8.20;;
10191;SDS011;17580;50.850;4.504;2023-04-24T05:38:53;10.37;;;8.00;;
10191;SDS011;17580;50.850;4.504;2023-04-24T05:41:21;9.77;;;7.10;;
10191;SDS011;17580;50.850;4.504;2023-04-24T05:43:48;8.00;;;6.80;;
10191;SDS011;17580;50.850;4.504;2023-04-24T05:46:16;8.37;;;7.43;;
10191;SDS011;17580;50.850;4.504;2023-04-24T05:48:43;11.70;;;7.97;;
10191;SDS011;17580;50.850;4.504;2023-04-24T05:51:10;8.40;;;7.50;;
10191;SDS011;17580;50.850;4.504;2023-04-24T05:53:37;10.43;;;7.80;;
10191;SDS011;17580;50.850;4.504;2023-04-24T05:56:04;9.93;;;7.10;;
10191;SDS011;17580;50.850;4.504;2023-04-24T05:58:32;10.90;;;7.73;;
10191;SDS011;17580;50.850;4.504;2023-04-24T06:00:59;10.40;;;8.10;;
10191;SDS011;17580;50.850;4.504;2023-04-24T06:03:27;7.97;;;6.70;;
10191;SDS011;17580;50.850;4.504;2023-04-24T06:05:54;9.77;;;8.13;;
10191;SDS011;17580;50.850;4.504;2023-04-24T06:08:21;10.93;;;7.40;;
10191;SDS011;17580;50.850;4.504;2023-04-24T06:10:48;10.63;;;8.53;;
10191;SDS011;17580;50.850;4.504;2023-04-24T06:13:15;10.77;;;7.70;;
10191;SDS011;17580;50.850;4.504;2023-04-24T06:15:43;10.87;;;8.13;;
10191;SDS011;17580;50.850;4.504;2023-04-24T06:18:10;9.97;;;8.00;;
10191;SDS011;17580;50.850;4.504;2023-04-24T06:20:37;11.87;;;8.90;;
10191;SDS011;17580;50.850;4.504;2023-04-24T06:23:05;10.67;;;8.27;;
10191;SDS011;17580;50.850;4.504;2023-04-24T06:25:32;8.87;;;7.57;;
10191;SDS011;17580;50.850;4.504;2023-04-24T06:27:59;12.97;;;8.93;;
10191;SDS011;17580;50.850;4.504;2023-04-24T06:30:26;10.50;;;8.40;;
10191;SDS011;17580;50.850;4.504;2023-04-24T06:32:55;11.40;;;8.40;;
10191;SDS011;17580;50.850;4.504;2023-04-24T06:35:22;10.13;;;8.17;;
10191;SDS011;17580;50.850;4.504;2023-04-24T06:37:49;9.77;;;8.77;;
10191;SDS011;17580;50.850;4.504;2023-04-24T06:40:17;9.67;;;8.47;;
10191;SDS011;17580;50.850;4.504;2023-04-24T06:42:44;12.53;;;8.70;;
10191;SDS011;17580;50.850;4.504;2023-04-24T06:45:11;12.03;;;9.03;;
10191;SDS011;17580;50.850;4.504;2023-04-24T06:47:38;10.30;;;8.50;;
10191;SDS011;17580;50.850;4.504;2023-04-24T06:50:07;13.20;;;9.07;;
10191;SDS011;17580;50.850;4.504;2023-04-24T06:52:34;11.57;;;9.57;;
10191;SDS011;17580;50.850;4.504;2023-04-24T06:55:01;14.03;;;9.50;;
10191;SDS011;17580;50.850;4.504;2023-04-24T06:57:29;13.90;;;10.33;;
10191;SDS011;17580;50.850;4.504;2023-04-24T06:59:56;15.77;;;11.23;;
10191;SDS011;17580;50.850;4.504;2023-04-24T07:02:23;14.73;;;9.87;;
10191;SDS011;17580;50.850;4.504;2023-04-24T07:04:50;13.43;;;10.47;;
10191;SDS011;17580;50.850;4.504;2023-04-24T07:07:19;16.27;;;11.83;;
10191;SDS011;17580;50.850;4.504;2023-04-24T07:09:46;12.87;;;10.37;;
10191;SDS011;17580;50.850;4.504;2023-04-24T07:12:13;14.63;;;10.27;;
10191;SDS011;17580;50.850;4.504;2023-04-24T07:14:42;15.43;;;11.90;;
10191;SDS011;17580;50.850;4.504;2023-04-24T07:17:09;16.37;;;11.10;;
10191;SDS011;17580;50.850;4.504;2023-04-24T07:19:38;14.40;;;11.13;;
10191;SDS011;17580;50.850;4.504;2023-04-24T07:22:05;18.43;;;11.73;;
10191;SDS011;17580;50.850;4.504;2023-04-24T07:24:33;14.53;;;10.47;;
10191;SDS011;17580;50.850;4.504;2023-04-24T07:27:00;16.37;;;9.13;;
10191;SDS011;17580;50.850;4.504;2023-04-24T07:29:27;14.13;;;10.43;;
10191;SDS011;17580;50.850;4.504;2023-04-24T07:31:54;14.70;;;10.07;;
10191;SDS011;17580;50.850;4.504;2023-04-24T07:34:21;11.27;;;10.07;;
10191;SDS011;17580;50.850;4.504;2023-04-24T07:36:48;10.83;;;9.53;;
10191;SDS011;17580;50.850;4.504;2023-04-24T07:39:15;15.93;;;9.83;;
10191;SDS011;17580;50.850;4.504;2023-04-24T07:41:43;13.23;;;9.13;;
10191;SDS011;17580;50.850;4.504;2023-04-24T07:44:10;11.37;;;8.43;;
10191;SDS011;17580;50.850;4.504;2023-04-24T07:46:37;13.23;;;9.30;;
10191;SDS011;17580;50.850;4.504;2023-04-24T07:49:04;12.17;;;7.93;;
10191;SDS011;17580;50.850;4.504;2023-04-24T07:51:31;10.97;;;6.57;;
10191;SDS011;17580;50.850;4.504;2023-04-24T07:54:03;8.90;;;6.90;;
10191;SDS011;17580;50.850;4.504;2023-04-24T07:56:31;8.73;;;5.70;;
10191;SDS011;17580;50.850;4.504;2023-04-24T07:58:59;8.73;;;6.60;;
10191;SDS011;17580;50.850;4.504;2023-04-24T08:01:27;12.90;;;6.33;;
10191;SDS011;17580;50.850;4.504;2023-04-24T08:03:54;6.30;;;5.47;;
10191;SDS011;17580;50.850;4.504;2023-04-24T08:06:21;8.40;;;5.90;;
10191;SDS011;17580;50.850;4.504;2023-04-24T08:08:48;10.00;;;7.00;;
10191;SDS011;17580;50.850;4.504;2023-04-24T08:11:16;15.57;;;8.07;;
10191;SDS011;17580;50.850;4.504;2023-04-24T08:13:43;9.87;;;6.70;;
10191;SDS011;17580;50.850;4.504;2023-04-24T08:16:12;11.33;;;7.80;;
10191;SDS011;17580;50.850;4.504;2023-04-24T08:18:39;10.73;;;7.13;;
10191;SDS011;17580;50.850;4.504;2023-04-24T08:21:06;12.33;;;7.57;;
10191;SDS011;17580;50.850;4.504;2023-04-24T08:23:33;10.97;;;7.70;;
10191;SDS011;17580;50.850;4.504;2023-04-24T08:26:00;13.07;;;8.63;;
10191;SDS011;17580;50.850;4.504;2023-04-24T08:28:28;15.57;;;7.23;;
10191;SDS011;17580;50.850;4.504;2023-04-24T08:30:55;13.10;;;7.13;;
10191;SDS011;17580;50.850;4.504;2023-04-24T08:33:23;13.07;;;6.67;;
10191;SDS011;17580;50.850;4.504;2023-04-24T08:35:50;10.47;;;5.83;;
10191;SDS011;17580;50.850;4.504;2023-04-24T08:38:17;10.07;;;5.87;;
10191;SDS011;17580;50.850;4.504;2023-04-24T08:40:44;9.13;;;5.33;;
10191;SDS011;17580;50.850;4.504;2023-04-24T08:43:14;12.33;;;6.67;;
10191;SDS011;17580;50.850;4.504;2023-04-24T08:45:42;8.83;;;5.60;;
10191;SDS011;17580;50.850;4.504;2023-04-24T08:48:09;7.00;;;5.20;;
10191;SDS011;17580;50.850;4.504;2023-04-24T08:50:38;9.77;;;5.07;;
10191;SDS011;17580;50.850;4.504;2023-04-24T08:53:07;11.47;;;5.93;;
10191;SDS011;17580;50.850;4.504;2023-04-24T08:55:35;13.17;;;5.47;;
10191;SDS011;17580;50.850;4.504;2023-04-24T08:58:03;12.17;;;5.67;;
10191;SDS011;17580;50.850;4.504;2023-04-24T09:00:30;8.13;;;5.23;;
10191;SDS011;17580;50.850;4.504;2023-04-24T09:03:00;5.50;;;3.87;;
10191;SDS011;17580;50.850;4.504;2023-04-24T09:05:27;4.80;;;4.23;;
10191;SDS011;17580;50.850;4.504;2023-04-24T09:07:56;9.07;;;4.70;;
10191;SDS011;17580;50.850;4.504;2023-04-24T09:10:24;8.87;;;4.57;;
10191;SDS011;17580;50.850;4.504;2023-04-24T09:12:53;7.87;;;3.50;;
10191;SDS011;17580;50.850;4.504;2023-04-24T09:15:21;6.63;;;3.40;;
10191;SDS011;17580;50.850;4.504;2023-04-24T09:17:49;5.77;;;3.67;;
10191;SDS011;17580;50.850;4.504;2023-04-24T09:20:16;7.40;;;3.87;;
10191;SDS011;17580;50.850;4.504;2023-04-24T09:22:43;5.80;;;3.50;;
10191;SDS011;17580;50.850;4.504;2023-04-24T09:25:13;6.97;;;3.73;;
10191;SDS011;17580;50.850;4.504;2023-04-24T09:27:43;8.20;;;4.30;;
10191;SDS011;17580;50.850;4.504;2023-04-24T09:30:11;5.90;;;3.77;;
10191;SDS011;17580;50.850;4.504;2023-04-24T09:32:39;4.67;;;3.37;;
10191;SDS011;17580;50.850;4.504;2023-04-24T09:35:07;6.63;;;3.83;;
10191;SDS011;17580;50.850;4.504;2023-04-24T09:37:37;6.20;;;3.60;;
10191;SDS011;17580;50.850;4.504;2023-04-24T09:40:15;4.97;;;3.50;;
10191;SDS011;17580;50.850;4.504;2023-04-24T09:42:43;4.03;;;3.47;;
10191;SDS011;17580;50.850;4.504;2023-04-24T09:45:11;4.30;;;3.30;;
10191;SDS011;17580;50.850;4.504;2023-04-24T09:47:39;4.93;;;3.23;;
10191;SDS011;17580;50.850;4.504;2023-04-24T09:50:09;6.67;;;4.03;;
10191;SDS011;17580;50.850;4.504;2023-04-24T09:52:41;4.33;;;3.60;;
10191;SDS011;17580;50.850;4.504;2023-04-24T09:55:18;9.03;;;4.00;;
10191;SDS011;17580;50.850;4.504;2023-04-24T09:57:47;4.33;;;3.33;;
10191;SDS011;17580;50.850;4.504;2023-04-24T10:00:17;5.07;;;3.10;;
10191;SDS011;17580;50.850;4.504;2023-04-24T10:02:49;4.73;;;2.90;;
10191;SDS011;17580;50.850;4.504;2023-04-24T10:05:17;5.70;;;3.73;;
10191;SDS011;17580;50.850;4.504;2023-04-24T10:07:44;4.87;;;3.10;;
10191;SDS011;17580;50.850;4.504;2023-04-24T10:10:11;5.87;;;3.10;;
10191;SDS011;17580;50.850;4.504;2023-04-24T10:12:39;4.20;;;3.17;;
10191;SDS011;17580;50.850;4.504;2023-04-24T10:15:09;6.40;;;3.60;;
10191;SDS011;17580;50.850;4.504;2023-04-24T10:17:38;4.23;;;3.10;;
10191;SDS011;17580;50.850;4.504;2023-04-24T10:20:06;4.10;;;3.33;;
10191;SDS011;17580;50.850;4.504;2023-04-24T10:22:35;4.53;;;2.90;;
10191;SDS011;17580;50.850;4.504;2023-04-24T10:25:03;3.03;;;2.73;;
10191;SDS011;17580;50.850;4.504;2023-04-24T10:27:31;5.67;;;2.90;;
10191;SDS011;17580;50.850;4.504;2023-04-24T10:30:01;3.10;;;2.80;;
10191;SDS011;17580;50.850;4.504;2023-04-24T10:32:28;5.23;;;3.03;;
10191;SDS011;17580;50.850;4.504;2023-04-24T10:34:55;4.47;;;3.70;;
10191;SDS011;17580;50.850;4.504;2023-04-24T10:37:22;7.60;;;3.20;;
10191;SDS011;17580;50.850;4.504;2023-04-24T10:39:50;7.87;;;3.67;;
10191;SDS011;17580;50.850;4.504;2023-04-24T10:42:19;7.30;;;3.20;;
10191;SDS011;17580;50.850;4.504;2023-04-24T10:44:47;4.30;;;3.10;;
10191;SDS011;17580;50.850;4.504;2023-04-24T10:47:16;4.87;;;3.83;;
10191;SDS011;17580;50.850;4.504;2023-04-24T10:49:43;4.77;;;3.40;;
10191;SDS011;17580;50.850;4.504;2023-04-24T10:52:10;3.53;;;3.20;;
10191;SDS011;17580;50.850;4.504;2023-04-24T10:54:41;5.07;;;3.33;;
10191;SDS011;17580;50.850;4.504;2023-04-24T10:57:26;10.27;;;3.33;;
10191;SDS011;17580;50.850;4.504;2023-04-24T11:00:18;3.77;;;3.43;;
10191;SDS011;17580;50.850;4.504;2023-04-24T11:02:48;3.80;;;3.20;;
10191;SDS011;17580;50.850;4.504;2023-04-24T11:05:15;9.40;;;4.00;;
10191;SDS011;17580;50.850;4.504;2023-04-24T11:10:38;4.67;;;3.83;;
10191;SDS011;17580;50.850;4.504;2023-04-24T11:13:06;5.53;;;3.87;;
10191;SDS011;17580;50.850;4.504;2023-04-24T11:15:34;5.13;;;4.10;;
10191;SDS011;17580;50.850;4.504;2023-04-24T11:18:02;11.40;;;4.40;;
10191;SDS011;17580;50.850;4.504;2023-04-24T11:20:29;9.63;;;4.80;;
10191;SDS011;17580;50.850;4.504;2023-04-24T11:22:57;5.03;;;3.53;;
10191;SDS011;17580;50.850;4.504;2023-04-24T11:25:31;6.50;;;4.17;;
10191;SDS011;17580;50.850;4.504;2023-04-24T11:28:08;5.93;;;3.77;;
10191;SDS011;17580;50.850;4.504;2023-04-24T11:30:42;4.37;;;3.83;;
10191;SDS011;17580;50.850;4.504;2023-04-24T11:33:10;7.13;;;4.17;;
10191;SDS011;17580;50.850;4.504;2023-04-24T11:35:39;7.97;;;3.83;;
10191;SDS011;17580;50.850;4.504;2023-04-24T11:38:06;5.67;;;3.80;;
10191;SDS011;17580;50.850;4.504;2023-04-24T11:40:33;3.53;;;3.23;;
10191;SDS011;17580;50.850;4.504;2023-04-24T11:43:00;4.10;;;3.70;;
10191;SDS011;17580;50.850;4.504;2023-04-24T11:45:30;6.07;;;3.90;;
10191;SDS011;17580;50.850;4.504;2023-04-24T11:47:57;4.03;;;3.67;;
10191;SDS011;17580;50.850;4.504;2023-04-24T11:50:26;3.67;;;3.37;;
10191;SDS011;17580;50.850;4.504;2023-04-24T11:52:54;9.00;;;3.03;;
10191;SDS011;17580;50.850;4.504;2023-04-24T11:55:26;4.37;;;3.60;;
10191;SDS011;17580;50.850;4.504;2023-04-24T11:57:54;6.17;;;4.30;;
10191;SDS011;17580;50.850;4.504;2023-04-24T12:00:23;4.90;;;3.40;;
10191;SDS011;17580;50.850;4.504;2023-04-24T12:02:51;4.63;;;3.70;;
10191;SDS011;17580;50.850;4.504;2023-04-24T12:05:31;4.17;;;3.77;;
10191;SDS011;17580;50.850;4.504;2023-04-24T12:07:58;6.23;;;3.70;;
10191;SDS011;17580;50.850;4.504;2023-04-24T12:10:26;4.40;;;4.00;;
10191;SDS011;17580;50.850;4.504;2023-04-24T12:12:55;5.50;;;4.30;;
10191;SDS011;17580;50.850;4.504;2023-04-24T12:15:23;4.33;;;4.03;;
10191;SDS011;17580;50.850;4.504;2023-04-24T12:17:50;4.77;;;4.10;;
10191;SDS011;17580;50.850;4.504;2023-04-24T12:20:23;4.57;;;4.10;;
10191;SDS011;17580;50.850;4.504;2023-04-24T12:22:53;4.73;;;4.30;;
10191;SDS011;17580;50.850;4.504;2023-04-24T12:25:22;4.03;;;3.67;;
10191;SDS011;17580;50.850;4.504;2023-04-24T12:27:52;4.87;;;3.90;;
10191;SDS011;17580;50.850;4.504;2023-04-24T12:30:21;3.97;;;3.57;;
10191;SDS011;17580;50.850;4.504;2023-04-24T12:32:52;4.17;;;3.77;;
10191;SDS011;17580;50.850;4.504;2023-04-24T12:35:20;5.40;;;3.63;;
10191;SDS011;17580;50.850;4.504;2023-04-24T12:37:48;3.63;;;3.33;;
10191;SDS011;17580;50.850;4.504;2023-04-24T12:40:17;3.70;;;3.43;;
10191;SDS011;17580;50.850;4.504;2023-04-24T12:42:47;4.87;;;3.03;;
10191;SDS011;17580;50.850;4.504;2023-04-24T12:45:16;3.93;;;3.50;;
10191;SDS011;17580;50.850;4.504;2023-04-24T12:47:45;3.97;;;3.57;;
10191;SDS011;17580;50.850;4.504;2023-04-24T12:50:12;4.33;;;3.93;;
10191;SDS011;17580;50.850;4.504;2023-04-24T12:52:41;3.03;;;2.70;;
10191;SDS011;17580;50.850;4.504;2023-04-24T12:55:08;2.93;;;2.73;;
10191;SDS011;17580;50.850;4.504;2023-04-24T12:57:39;3.93;;;2.93;;
10191;SDS011;17580;50.850;4.504;2023-04-24T13:00:07;4.13;;;3.20;;
10191;SDS011;17580;50.850;4.504;2023-04-24T13:02:34;3.17;;;2.93;;
10191;SDS011;17580;50.850;4.504;2023-04-24T13:05:01;3.57;;;3.27;;
10191;SDS011;17580;50.850;4.504;2023-04-24T13:07:29;3.47;;;3.17;;
10191;SDS011;17580;50.850;4.504;2023-04-24T13:09:56;3.30;;;3.00;;
10191;SDS011;17580;50.850;4.504;2023-04-24T13:12:23;3.13;;;2.83;;
10191;SDS011;17580;50.850;4.504;2023-04-24T13:14:52;3.17;;;2.80;;
10191;SDS011;17580;50.850;4.504;2023-04-24T13:17:19;2.80;;;2.60;;
10191;SDS011;17580;50.850;4.504;2023-04-24T13:19:46;4.77;;;3.27;;
10191;SDS011;17580;50.850;4.504;2023-04-24T13:22:16;3.80;;;3.07;;
10191;SDS011;17580;50.850;4.504;2023-04-24T13:24:43;4.17;;;2.77;;
10191;SDS011;17580;50.850;4.504;2023-04-24T13:27:10;4.97;;;2.70;;
10191;SDS011;17580;50.850;4.504;2023-04-24T13:29:37;4.30;;;3.07;;
10191;SDS011;17580;50.850;4.504;2023-04-24T13:32:06;5.37;;;3.40;;
10191;SDS011;17580;50.850;4.504;2023-04-24T13:34:33;3.33;;;2.40;;
10191;SDS011;17580;50.850;4.504;2023-04-24T13:37:02;4.83;;;2.97;;
10191;SDS011;17580;50.850;4.504;2023-04-24T13:39:29;2.93;;;2.67;;
10191;SDS011;17580;50.850;4.504;2023-04-24T13:41:56;2.70;;;2.50;;
10191;SDS011;17580;50.850;4.504;2023-04-24T13:44:23;2.67;;;2.50;;
10191;SDS011;17580;50.850;4.504;2023-04-24T13:46:52;4.83;;;2.50;;
10191;SDS011;17580;50.850;4.504;2023-04-24T13:49:23;2.67;;;1.90;;
10191;SDS011;17580;50.850;4.504;2023-04-24T13:51:51;2.97;;;2.60;;
10191;SDS011;17580;50.850;4.504;2023-04-24T13:54:19;2.27;;;2.10;;
10191;SDS011;17580;50.850;4.504;2023-04-24T13:56:46;2.40;;;2.07;;
10191;SDS011;17580;50.850;4.504;2023-04-24T13:59:13;4.93;;;2.60;;
10191;SDS011;17580;50.850;4.504;2023-04-24T14:01:40;2.80;;;2.53;;
10191;SDS011;17580;50.850;4.504;2023-04-24T14:04:07;3.43;;;2.40;;
10191;SDS011;17580;50.850;4.504;2023-04-24T14:06:35;4.97;;;2.30;;
10191;SDS011;17580;50.850;4.504;2023-04-24T14:09:02;2.73;;;2.27;;
10191;SDS011;17580;50.850;4.504;2023-04-24T14:11:29;2.20;;;2.00;;
10191;SDS011;17580;50.850;4.504;2023-04-24T14:13:56;1.60;;;1.50;;
10191;SDS011;17580;50.850;4.504;2023-04-24T14:16:23;3.87;;;2.20;;
10191;SDS011;17580;50.850;4.504;2023-04-24T14:18:50;3.73;;;1.70;;
10191;SDS011;17580;50.850;4.504;2023-04-24T14:21:17;3.03;;;2.23;;
10191;SDS011;17580;50.850;4.504;2023-04-24T14:23:46;3.10;;;2.20;;
10191;SDS011;17580;50.850;4.504;2023-04-24T14:26:13;3.10;;;2.20;;
10191;SDS011;17580;50.850;4.504;2023-04-24T14:28:40;3.03;;;2.00;;
10191;SDS011;17580;50.850;4.504;2023-04-24T14:31:07;6.90;;;2.07;;
10191;SDS011;17580;50.850;4.504;2023-04-24T14:33:34;7.63;;;2.30;;
10191;SDS011;17580;50.850;4.504;2023-04-24T14:36:01;3.27;;;2.17;;
10191;SDS011;17580;50.850;4.504;2023-04-24T14:38:30;3.17;;;2.40;;
10191;SDS011;17580;50.850;4.504;2023-04-24T14:40:59;2.63;;;2.00;;
10191;SDS011;17580;50.850;4.504;2023-04-24T14:43:26;1.97;;;1.87;;
10191;SDS011;17580;50.850;4.504;2023-04-24T14:45:53;3.80;;;2.30;;
10191;SDS011;17580;50.850;4.504;2023-04-24T14:48:20;2.53;;;1.93;;